createdAt,value
2022-11-12T00:00:39.531Z,102882.41
2022-11-12T00:03:58.515Z,102878.84
2022-11-12T00:06:57.080Z,102881.13
2022-11-12T00:09:42.436Z,102877.78
2022-11-12T00:12:28.163Z,102866.19
2022-11-12T00:15:13.471Z,102877.06
2022-11-12T00:17:59.024Z,102871.66
2022-11-12T00:21:04.534Z,102870.09
2022-11-12T00:24:03.010Z,102870.22
2022-11-12T00:26:48.485Z,102874.41
2022-11-12T00:29:54.558Z,102876.00
2022-11-12T00:32:52.985Z,102864.34
2022-11-12T00:35:38.505Z,102858.31
2022-11-12T00:38:24.159Z,102854.69
2022-11-12T00:41:09.706Z,102851.59
2022-11-12T00:43:55.091Z,102863.31
2022-11-12T00:46:40.576Z,102855.84
2022-11-12T00:49:25.998Z,102864.44
2022-11-12T00:52:10.932Z,102862.84
2022-11-12T00:54:56.252Z,102866.56
2022-11-12T00:57:41.420Z,102861.91
2022-11-12T01:00:47.591Z,102858.75
2022-11-12T01:04:06.626Z,102867.13
2022-11-12T01:07:25.535Z,102868.53
2022-11-12T01:10:24.154Z,102868.03
2022-11-12T01:13:09.575Z,102861.00
2022-11-12T01:15:54.840Z,102851.47
2022-11-12T01:18:40.178Z,102843.94
2022-11-12T01:21:26.787Z,102853.88
2022-11-12T01:24:32.620Z,102848.53
2022-11-12T01:27:31.026Z,102851.56
2022-11-12T01:30:36.569Z,102850.69
2022-11-12T01:33:34.986Z,102836.03
2022-11-12T01:36:21.637Z,102837.66
2022-11-12T01:39:08.375Z,102839.69
2022-11-12T01:41:53.871Z,102835.50
2022-11-12T01:44:42.587Z,102841.00
2022-11-12T01:47:48.592Z,102830.34
2022-11-12T01:50:47.675Z,102835.31
2022-11-12T01:53:36.481Z,102826.75
2022-11-12T01:56:22.746Z,102835.28
2022-11-12T01:59:30.589Z,102830.84
2022-11-12T02:02:50.602Z,102832.81
2022-11-12T02:05:53.464Z,102835.50
2022-11-12T02:08:38.923Z,102830.69
2022-11-12T02:11:24.590Z,102826.50
2022-11-12T02:14:10.077Z,102827.03
2022-11-12T02:16:55.459Z,102806.94
2022-11-12T02:19:40.901Z,102811.13
2022-11-12T02:22:46.614Z,102806.34
2022-11-12T02:25:45.122Z,102793.81
2022-11-12T02:28:31.250Z,102781.81
2022-11-12T02:31:43.625Z,102791.44
2022-11-12T02:34:32.901Z,102790.34
2022-11-12T02:37:18.637Z,102789.50
2022-11-12T02:40:04.143Z,102774.25
2022-11-12T02:42:49.589Z,102784.09
2022-11-12T02:45:35.170Z,102781.69
2022-11-12T02:48:20.738Z,102785.66
2022-11-12T02:51:06.569Z,102772.13
2022-11-12T02:54:12.620Z,102770.13
2022-11-12T02:57:11.072Z,102773.88
2022-11-12T02:59:56.221Z,102769.00
2022-11-12T03:03:07.637Z,102767.81
2022-11-12T03:06:01.150Z,102765.78
2022-11-12T03:09:25.901Z,102769.72
2022-11-12T03:12:45.620Z,102760.34
2022-11-12T03:16:04.625Z,102769.44
2022-11-12T03:19:03.125Z,102762.69
2022-11-12T03:21:48.750Z,102756.53
2022-11-12T03:24:54.620Z,102764.41
2022-11-12T03:27:56.994Z,102768.38
2022-11-12T03:31:02.635Z,102766.03
2022-11-12T03:34:01.295Z,102768.28
2022-11-12T03:36:46.600Z,102752.47
2022-11-12T03:39:32.005Z,102746.00
2022-11-12T03:42:17.351Z,102752.28
2022-11-12T03:45:03.454Z,102749.50
2022-11-12T03:47:49.751Z,102737.41
2022-11-12T03:50:35.120Z,102743.22
2022-11-12T03:53:20.414Z,102742.97
2022-11-12T03:56:25.675Z,102736.94
2022-11-12T03:59:24.045Z,102740.03
2022-11-12T04:02:29.631Z,102733.31
2022-11-12T04:06:07.665Z,102735.91
2022-11-12T04:09:06.264Z,102740.41
2022-11-12T04:11:51.693Z,102737.41
2022-11-12T04:14:36.942Z,102734.03
2022-11-12T04:17:40.720Z,102735.88
2022-11-12T04:20:44.912Z,102739.03
2022-11-12T04:23:30.128Z,102735.06
2022-11-12T04:26:24.568Z,102739.31
2022-11-12T04:29:48.751Z,102739.38
2022-11-12T04:33:01.832Z,102735.53
2022-11-12T04:36:00.412Z,102729.84
2022-11-12T04:38:45.854Z,102728.56
2022-11-12T04:41:56.665Z,102717.69
2022-11-12T04:44:59.750Z,102718.09
2022-11-12T04:47:45.395Z,102713.75
2022-11-12T04:50:30.709Z,102720.94
2022-11-12T04:53:16.348Z,102719.66
2022-11-12T04:56:02.081Z,102717.44
2022-11-12T04:58:47.562Z,102717.72
2022-11-12T05:01:53.753Z,102710.91
2022-11-12T05:05:12.691Z,102711.72
2022-11-12T05:08:11.110Z,102709.31
2022-11-12T05:10:56.343Z,102713.28
2022-11-12T05:13:41.754Z,102707.09
2022-11-12T05:16:27.475Z,102703.00
2022-11-12T05:19:13.009Z,102707.41
2022-11-12T05:22:13.924Z,102707.31
2022-11-12T05:25:12.869Z,102702.78
2022-11-12T05:27:58.197Z,102708.22
2022-11-12T05:31:04.675Z,102693.84
2022-11-12T05:34:03.501Z,102692.94
2022-11-12T05:36:48.607Z,102690.09
2022-11-12T05:39:34.135Z,102686.13
2022-11-12T05:42:19.644Z,102694.88
2022-11-12T05:45:26.742Z,102691.22
2022-11-12T05:48:45.707Z,102680.44
2022-11-12T05:51:37.937Z,102694.41
2022-11-12T05:54:25.048Z,102699.03
2022-11-12T05:57:10.375Z,102699.25
2022-11-12T05:59:55.607Z,102701.75
2022-11-12T06:03:00.803Z,102697.19
2022-11-12T06:06:19.744Z,102700.66
2022-11-12T06:09:18.297Z,102701.72
2022-11-12T06:12:06.873Z,102705.44
2022-11-12T06:15:12.746Z,102709.75
2022-11-12T06:18:12.311Z,102709.78
2022-11-12T06:21:19.736Z,102710.06
2022-11-12T06:24:05.572Z,102714.97
2022-11-12T06:26:50.912Z,102713.56
2022-11-12T06:29:56.713Z,102709.34
2022-11-12T06:32:55.116Z,102705.59
2022-11-12T06:36:00.737Z,102701.28
2022-11-12T06:38:59.286Z,102684.06
2022-11-12T06:41:44.376Z,102689.34
2022-11-12T06:44:29.911Z,102678.53
2022-11-12T06:47:15.247Z,102677.53
2022-11-12T06:50:00.735Z,102677.75
2022-11-12T06:52:46.225Z,102679.78
2022-11-12T06:55:31.732Z,102680.56
2022-11-12T06:58:16.998Z,102684.84
2022-11-12T07:01:27.804Z,102688.00
2022-11-12T07:04:46.732Z,102700.66
2022-11-12T07:08:05.770Z,102698.00
2022-11-12T07:11:12.222Z,102701.22
2022-11-12T07:13:57.795Z,102697.72
2022-11-12T07:16:43.152Z,102698.41
2022-11-12T07:19:28.852Z,102694.53
2022-11-12T07:22:14.286Z,102692.94
2022-11-12T07:24:59.768Z,102686.69
2022-11-12T07:27:45.295Z,102678.56
2022-11-12T07:30:50.863Z,102673.59
2022-11-12T07:33:49.487Z,102670.03
2022-11-12T07:36:34.813Z,102670.13
2022-11-12T07:39:20.222Z,102664.78
2022-11-12T07:42:06.309Z,102664.84
2022-11-12T07:44:51.863Z,102657.19
2022-11-12T07:47:36.953Z,102655.75
2022-11-12T07:50:22.397Z,102654.44
2022-11-12T07:53:07.649Z,102654.19
2022-11-12T07:55:57.151Z,102640.78
2022-11-12T08:02:05.805Z,102642.50
2022-11-12T08:05:24.817Z,102642.81
2022-11-12T08:08:23.383Z,102642.56
2022-11-12T08:11:08.769Z,102641.31
2022-11-12T08:13:53.728Z,102645.75
2022-11-12T08:17:05.796Z,102639.56
2022-11-12T08:20:24.779Z,102635.34
2022-11-12T08:23:14.333Z,102629.50
2022-11-12T08:26:04.409Z,102635.66
2022-11-12T08:29:09.845Z,102646.63
2022-11-12T08:32:08.301Z,102656.47
2022-11-12T08:35:13.790Z,102654.97
2022-11-12T08:38:14.066Z,102656.69
2022-11-12T08:41:20.779Z,102666.50
2022-11-12T08:44:19.320Z,102664.31
2022-11-12T08:47:04.528Z,102665.31
2022-11-12T08:49:50.029Z,102669.81
2022-11-12T08:52:35.388Z,102664.22
2022-11-12T08:55:47.798Z,102660.88
2022-11-12T08:58:40.481Z,102662.97
2022-11-12T09:01:45.904Z,102667.53
2022-11-12T09:04:44.345Z,102669.44
2022-11-12T09:07:48.924Z,102672.06
2022-11-12T09:10:35.302Z,102663.88
2022-11-12T09:13:20.631Z,102667.00
2022-11-12T09:16:25.925Z,102667.88
2022-11-12T09:19:44.829Z,102662.59
2022-11-12T09:22:43.489Z,102661.22
2022-11-12T09:25:29.343Z,102652.75
2022-11-12T09:28:15.986Z,102654.66
2022-11-12T09:31:27.836Z,102636.38
2022-11-12T09:34:20.129Z,102630.66
2022-11-12T09:37:05.886Z,102630.91
2022-11-12T09:40:11.811Z,102625.19
2022-11-12T09:43:31.102Z,102629.34
2022-11-12T09:46:28.301Z,102625.28
2022-11-12T09:49:34.854Z,102629.81
2022-11-12T09:52:33.489Z,102628.78
2022-11-12T09:55:22.763Z,102629.59
2022-11-12T09:58:12.440Z,102629.47
2022-11-12T10:01:25.857Z,102616.94
2022-11-12T10:05:09.874Z,102626.19
2022-11-12T10:08:28.827Z,102634.59
2022-11-12T10:11:53.181Z,102634.31
2022-11-12T10:14:57.449Z,102624.47
2022-11-12T10:17:49.417Z,102629.22
2022-11-12T10:20:56.172Z,102617.19
2022-11-12T10:23:55.851Z,102613.84
2022-11-12T10:27:15.895Z,102613.75
2022-11-12T10:30:36.845Z,102601.06
2022-11-12T10:33:35.461Z,102603.41
2022-11-12T10:36:40.848Z,102594.25
2022-11-12T10:39:59.843Z,102571.47
2022-11-12T10:43:05.955Z,102575.41
2022-11-12T10:45:51.727Z,102579.34
2022-11-12T10:49:06.891Z,102577.38
2022-11-12T10:52:20.335Z,102553.34
2022-11-12T10:55:32.944Z,102562.00
2022-11-12T10:58:31.486Z,102548.00
2022-11-12T11:01:49.931Z,102536.44
2022-11-12T11:05:08.878Z,102543.69
2022-11-12T11:07:55.273Z,102539.78
2022-11-12T11:10:40.615Z,102534.00
2022-11-12T11:13:28.841Z,102517.84
2022-11-12T11:16:18.966Z,102524.34
2022-11-12T11:19:05.313Z,102529.16
2022-11-12T11:21:50.653Z,102519.56
2022-11-12T11:24:42.481Z,102514.91
2022-11-12T11:27:37.178Z,102508.28
2022-11-12T11:30:42.967Z,102503.06
2022-11-12T11:34:20.063Z,102496.25
2022-11-12T11:37:41.924Z,102486.31
2022-11-12T11:40:48.310Z,102488.88
2022-11-12T11:43:36.579Z,102477.19
2022-11-12T11:46:37.261Z,102476.09
2022-11-12T11:49:32.251Z,102472.09
2022-11-12T11:52:17.910Z,102470.09
2022-11-12T11:55:16.617Z,102457.50
2022-11-12T11:58:01.876Z,102440.41
2022-11-12T12:01:12.936Z,102453.81
2022-11-12T12:04:11.678Z,102448.47
2022-11-12T12:07:15.791Z,102461.47
2022-11-12T12:10:16.713Z,102471.59
2022-11-12T12:13:05.391Z,102466.63
2022-11-12T12:16:02.694Z,102486.97
2022-11-12T12:18:48.567Z,102465.28
2022-11-12T12:21:36.586Z,102454.88
2022-11-12T12:24:43.935Z,102454.00
2022-11-12T12:28:05.480Z,102440.75
2022-11-12T12:31:14.953Z,102438.09
2022-11-12T12:34:36.932Z,102433.34
2022-11-12T12:37:35.550Z,102417.84
2022-11-12T12:40:25.155Z,102420.47
2022-11-12T12:43:14.320Z,102412.50
2022-11-12T12:45:59.812Z,102409.66
2022-11-12T12:48:46.680Z,102406.44
2022-11-12T12:51:55.743Z,102405.53
2022-11-12T12:54:54.818Z,102383.69
2022-11-12T12:57:59.957Z,102388.56
2022-11-12T13:01:22.062Z,102387.19
2022-11-12T13:04:40.284Z,102381.22
2022-11-12T13:07:43.437Z,102374.97
2022-11-12T13:10:54.957Z,102361.28
2022-11-12T13:13:53.449Z,102366.53
2022-11-12T13:16:51.315Z,102365.78
2022-11-12T13:19:47.922Z,102366.13
2022-11-12T13:22:36.389Z,102361.22
2022-11-12T13:25:22.098Z,102360.94
2022-11-12T13:28:10.918Z,102370.06
2022-11-12T13:31:17.046Z,102367.84
2022-11-12T13:34:21.920Z,102363.56
2022-11-12T13:37:35.003Z,102350.22
2022-11-12T13:41:18.999Z,102345.25
2022-11-12T13:44:17.883Z,102334.06
2022-11-12T13:47:03.315Z,102335.06
2022-11-12T13:49:48.970Z,102331.09
2022-11-12T13:52:54.091Z,102331.69
2022-11-12T13:56:12.986Z,102318.41
2022-11-12T13:59:15.225Z,102340.78
2022-11-12T14:02:03.940Z,102335.13
2022-11-12T14:04:50.505Z,102336.13
2022-11-12T14:07:41.715Z,102337.09
2022-11-12T14:11:04.002Z,102329.88
2022-11-12T14:14:14.579Z,102318.59
2022-11-12T14:17:23.033Z,102314.72
2022-11-12T14:20:37.051Z,102318.28
2022-11-12T14:23:37.250Z,102318.66
2022-11-12T14:26:35.008Z,102313.94
2022-11-12T14:29:36.172Z,102308.22
2022-11-12T14:32:40.703Z,102318.28
2022-11-12T14:35:38.846Z,102313.44
2022-11-12T14:38:44.076Z,102314.16
2022-11-12T14:42:03.018Z,102312.59
2022-11-12T14:45:32.594Z,102294.72
2022-11-12T14:49:03.094Z,102301.28
2022-11-12T14:52:29.017Z,102300.09
2022-11-12T14:55:50.035Z,102291.84
2022-11-12T14:59:10.062Z,102298.38
2022-11-12T15:05:52.259Z,102290.50
2022-11-12T15:08:39.367Z,102300.69
2022-11-12T15:11:58.021Z,102277.13
2022-11-12T15:15:16.784Z,102268.66
2022-11-12T15:18:07.436Z,102269.22
2022-11-12T15:21:20.061Z,102259.75
2022-11-12T15:24:40.062Z,102261.53
2022-11-12T15:27:27.846Z,102265.16
2022-11-12T15:30:37.053Z,102267.16
2022-11-12T15:33:35.599Z,102251.91
2022-11-12T15:36:22.101Z,102245.91
2022-11-12T15:39:12.196Z,102248.28
2022-11-12T15:42:29.089Z,102248.97
2022-11-12T15:45:27.836Z,102260.47
2022-11-12T15:48:13.371Z,102252.47
2022-11-12T15:51:26.906Z,102248.91
2022-11-12T15:54:46.089Z,102253.81
2022-11-12T15:58:06.129Z,102250.38
2022-11-12T16:01:25.254Z,102258.31
2022-11-12T16:04:44.213Z,102256.59
2022-11-12T16:07:36.211Z,102252.59
2022-11-12T16:10:44.552Z,102248.50
2022-11-12T16:13:43.001Z,102242.22
2022-11-12T16:16:34.516Z,102251.78
2022-11-12T16:19:20.196Z,102247.00
2022-11-12T16:22:26.398Z,102250.25
2022-11-12T16:25:46.295Z,102249.31
2022-11-12T16:29:06.244Z,102263.25
2022-11-12T16:32:28.259Z,102252.50
2022-11-12T16:35:16.791Z,102253.75
2022-11-12T16:38:02.276Z,102260.63
2022-11-12T16:40:47.930Z,102262.50
2022-11-12T16:43:33.336Z,102260.09
2022-11-12T16:46:34.756Z,102257.53
2022-11-12T16:49:40.099Z,102261.31
2022-11-12T16:52:59.167Z,102250.75
2022-11-12T16:55:57.753Z,102263.44
2022-11-12T16:59:10.146Z,102261.59
2022-11-12T17:02:27.108Z,102263.63
2022-11-12T17:05:26.022Z,102262.88
2022-11-12T17:08:11.408Z,102262.00
2022-11-12T17:11:21.235Z,102265.03
2022-11-12T17:14:24.300Z,102260.84
2022-11-12T17:17:40.203Z,102252.31
2022-11-12T17:20:59.133Z,102262.13
2022-11-12T17:24:18.126Z,102267.25
2022-11-12T17:27:21.894Z,102260.22
2022-11-12T17:30:27.140Z,102259.75
2022-11-12T17:33:25.835Z,102258.50
2022-11-12T17:36:16.666Z,102262.84
2022-11-12T17:39:01.964Z,102244.59
2022-11-12T17:41:47.361Z,102240.25
2022-11-12T17:44:34.213Z,102242.81
2022-11-12T17:47:19.808Z,102231.88
2022-11-12T17:50:05.183Z,102217.31
2022-11-12T17:53:17.136Z,102218.28
2022-11-12T17:56:37.358Z,102221.28
2022-11-12T17:59:40.085Z,102234.75
2022-11-12T18:02:25.474Z,102241.41
2022-11-12T18:05:11.524Z,102236.25
2022-11-12T18:07:57.047Z,102233.94
2022-11-12T18:10:55.152Z,102235.94
2022-11-12T18:14:19.141Z,102229.94
2022-11-12T18:17:17.628Z,102231.09
2022-11-12T18:20:23.139Z,102243.28
2022-11-12T18:23:42.146Z,102245.50
2022-11-12T18:27:02.146Z,102250.47
2022-11-12T18:30:19.141Z,102247.50
2022-11-12T18:33:38.363Z,102239.66
2022-11-12T18:36:37.174Z,102225.56
2022-11-12T18:39:22.401Z,102229.25
2022-11-12T18:42:07.897Z,102225.50
2022-11-12T18:44:53.297Z,102230.09
2022-11-12T18:47:38.988Z,102228.66
2022-11-12T18:50:24.466Z,102220.63
2022-11-12T18:53:09.551Z,102214.47
2022-11-12T18:55:56.435Z,102221.53
2022-11-12T18:58:42.131Z,102228.19
2022-11-12T19:01:50.336Z,102218.09
2022-11-12T19:05:10.258Z,102209.56
2022-11-12T19:08:08.710Z,102203.44
2022-11-12T19:11:14.221Z,102204.16
2022-11-12T19:14:12.776Z,102200.09
2022-11-12T19:17:04.953Z,102204.50
2022-11-12T19:20:05.483Z,102116.94
2022-11-12T19:22:50.939Z,102189.97
2022-11-12T19:25:36.418Z,102185.81
2022-11-12T19:28:22.478Z,102184.19
2022-11-12T19:31:36.219Z,102190.59
2022-11-12T19:34:53.938Z,102193.34
2022-11-12T19:37:39.563Z,102195.47
2022-11-12T19:40:25.323Z,102193.81
2022-11-12T19:43:10.454Z,102199.06
2022-11-12T19:45:55.984Z,102196.06
2022-11-12T19:48:41.467Z,102188.16
2022-11-12T19:51:26.976Z,102179.72
2022-11-12T19:54:12.616Z,102171.44
2022-11-12T19:56:58.105Z,102172.06
2022-11-12T20:00:04.204Z,102179.25
2022-11-12T20:03:24.217Z,102174.84
2022-11-12T20:06:25.611Z,102188.53
2022-11-12T20:09:11.014Z,102203.47
2022-11-12T20:12:16.185Z,102202.97
2022-11-12T20:15:35.223Z,102197.44
2022-11-12T20:18:54.206Z,102181.00
2022-11-12T20:22:13.238Z,102178.47
2022-11-12T20:25:05.638Z,102183.16
2022-11-12T20:28:11.226Z,102184.13
2022-11-12T20:31:31.248Z,102192.78
2022-11-12T20:34:50.285Z,102194.00
2022-11-12T20:38:09.243Z,102188.03
2022-11-12T20:41:04.663Z,102207.44
2022-11-12T20:43:53.943Z,102209.13
2022-11-12T20:46:40.246Z,102198.75
2022-11-12T20:49:27.942Z,102193.34
2022-11-12T20:52:15.688Z,102201.19
2022-11-12T20:55:21.310Z,102191.66
2022-11-12T20:58:19.787Z,102184.84
2022-11-12T21:01:26.450Z,102182.53
2022-11-12T21:04:24.913Z,102189.91
2022-11-12T21:07:10.923Z,102184.63
2022-11-12T21:10:09.285Z,102192.41
2022-11-12T21:13:07.975Z,102194.88
2022-11-12T21:16:13.377Z,102192.28
2022-11-12T21:19:32.253Z,102190.59
2022-11-12T21:22:32.166Z,102190.59
2022-11-12T21:25:17.210Z,102187.66
2022-11-12T21:28:02.629Z,102194.16
2022-11-12T21:31:08.282Z,102190.22
2022-11-12T21:34:07.185Z,102136.53
2022-11-12T21:37:19.273Z,102186.69
2022-11-12T21:40:11.437Z,102188.16
2022-11-12T21:42:56.958Z,102187.56
2022-11-12T21:45:46.539Z,102178.78
2022-11-12T21:48:32.186Z,102169.22
2022-11-12T21:51:41.259Z,102178.38
2022-11-12T21:54:33.768Z,102177.97
2022-11-12T21:57:19.692Z,102177.13
2022-11-12T22:00:34.692Z,102168.94
2022-11-12T22:03:38.264Z,102158.09
2022-11-12T22:06:38.459Z,102158.13
2022-11-12T22:09:24.076Z,102165.06
2022-11-12T22:12:30.268Z,102159.53
2022-11-12T22:15:24.447Z,102157.28
2022-11-12T22:18:30.596Z,102160.03
2022-11-12T22:21:49.274Z,102159.31
2022-11-12T22:24:48.054Z,102149.75
2022-11-12T22:27:54.280Z,102158.88
2022-11-12T22:31:21.323Z,102159.03
2022-11-12T22:34:40.265Z,102161.88
2022-11-12T22:37:38.406Z,102163.88
2022-11-12T22:40:23.710Z,102167.16
2022-11-12T22:43:09.140Z,102169.25
2022-11-12T22:46:18.313Z,102164.81
2022-11-12T22:49:38.310Z,102159.56
2022-11-12T22:52:36.759Z,102157.84
2022-11-12T22:55:22.278Z,102151.81
2022-11-12T22:58:07.445Z,102151.91
2022-11-12T23:00:53.046Z,102157.66
2022-11-12T23:03:38.210Z,102162.81
2022-11-12T23:06:23.933Z,102152.78
2022-11-12T23:09:14.149Z,102151.72
2022-11-12T23:12:19.303Z,102154.03
2022-11-12T23:15:38.302Z,102167.53
2022-11-12T23:18:36.775Z,102151.53
2022-11-12T23:21:24.058Z,102151.19
2022-11-12T23:24:09.773Z,102152.09
2022-11-12T23:26:55.381Z,102141.81
2022-11-12T23:30:01.311Z,102141.72
2022-11-12T23:33:20.310Z,102142.81
2022-11-12T23:36:19.687Z,102148.94
2022-11-12T23:39:25.297Z,102152.19
2022-11-12T23:42:23.655Z,102140.94
2022-11-12T23:45:36.328Z,102136.75
2022-11-12T23:48:55.328Z,102133.09
2022-11-12T23:51:42.490Z,102134.97
2022-11-12T23:54:27.820Z,102131.00
2022-11-12T23:57:12.970Z,102127.75
2022-11-12T23:59:58.524Z,102131.53
